createdAt,value
2023-02-16T00:01:58.550Z,18.30
2023-02-16T00:04:31.151Z,17.38
2023-02-16T00:06:58.666Z,17.02
2023-02-16T00:09:26.374Z,17.48
2023-02-16T00:12:12.766Z,17.80
2023-02-16T00:14:40.440Z,18.38
2023-02-16T00:17:11.708Z,17.75
2023-02-16T00:19:42.297Z,18.80
2023-02-16T00:22:12.517Z,17.73
2023-02-16T00:24:40.057Z,18.50
2023-02-16T00:27:15.512Z,19.00
2023-02-16T00:29:45.459Z,18.52
2023-02-16T00:32:14.474Z,18.70
2023-02-16T00:34:44.969Z,16.55
2023-02-16T00:37:13.956Z,19.48
2023-02-16T00:39:43.038Z,19.27
2023-02-16T00:42:17.572Z,15.63
2023-02-16T00:44:55.376Z,18.90
2023-02-16T00:47:30.584Z,17.98
2023-02-16T00:49:58.717Z,18.80
2023-02-16T00:52:35.098Z,16.98
2023-02-16T00:55:12.109Z,19.58
2023-02-16T00:57:52.381Z,18.05
2023-02-16T01:00:34.008Z,19.92
2023-02-16T01:03:07.684Z,19.52
2023-02-16T01:05:36.779Z,20.35
2023-02-16T01:08:29.285Z,19.67
2023-02-16T01:11:01.860Z,18.95
2023-02-16T01:13:32.347Z,19.30
2023-02-16T01:15:59.941Z,18.95
2023-02-16T01:18:30.193Z,18.90
2023-02-16T01:20:57.739Z,18.88
2023-02-16T01:23:25.427Z,19.05
2023-02-16T01:25:52.923Z,19.60
2023-02-16T01:28:23.425Z,17.52
2023-02-16T01:30:52.695Z,19.30
2023-02-16T01:33:21.212Z,18.77
2023-02-16T01:35:49.902Z,18.98
2023-02-16T01:38:20.107Z,19.10
2023-02-16T01:41:22.714Z,18.45
2023-02-16T01:43:59.765Z,18.98
2023-02-16T01:46:43.742Z,18.92
2023-02-16T01:49:15.986Z,15.88
2023-02-16T01:52:25.833Z,20.15
2023-02-16T01:55:00.677Z,19.88
2023-02-16T01:57:58.244Z,17.40
2023-02-16T02:00:50.501Z,18.48
2023-02-16T02:03:50.130Z,18.00
2023-02-16T02:06:31.444Z,18.60
2023-02-16T02:09:07.206Z,18.05
2023-02-16T02:11:46.232Z,19.45
2023-02-16T02:14:18.306Z,18.10
2023-02-16T02:16:55.742Z,17.30
2023-02-16T02:19:24.016Z,19.05
2023-02-16T02:22:34.351Z,19.20
2023-02-16T02:25:30.969Z,18.20
2023-02-16T02:31:08.810Z,17.27
2023-02-16T02:34:02.900Z,18.00
2023-02-16T02:36:40.702Z,14.88
2023-02-16T02:39:15.359Z,17.85
2023-02-16T02:42:05.287Z,15.18
2023-02-16T02:44:49.432Z,18.90
2023-02-16T02:47:17.399Z,17.75
2023-02-16T02:49:54.975Z,16.77
2023-02-16T02:52:23.346Z,18.17
2023-02-16T02:55:10.948Z,17.30
2023-02-16T02:58:03.816Z,19.15
2023-02-16T03:00:44.606Z,16.27
2023-02-16T03:03:14.868Z,17.75
2023-02-16T03:05:47.303Z,17.63
2023-02-16T03:08:19.066Z,18.80
2023-02-16T03:11:18.420Z,16.55
2023-02-16T03:13:59.665Z,16.25
2023-02-16T03:16:40.288Z,18.08
2023-02-16T03:19:28.801Z,19.05
2023-02-16T03:22:16.301Z,17.92
2023-02-16T03:25:02.441Z,19.27
2023-02-16T03:28:00.122Z,15.77
2023-02-16T03:30:29.373Z,19.13
2023-02-16T03:32:56.939Z,19.38
2023-02-16T03:35:25.703Z,17.20
2023-02-16T03:37:53.251Z,13.88
2023-02-16T03:40:30.967Z,17.20
2023-02-16T03:43:02.315Z,18.60
2023-02-16T03:45:30.869Z,17.80
2023-02-16T03:47:58.569Z,16.15
2023-02-16T03:50:27.202Z,18.20
2023-02-16T03:53:07.096Z,19.17
2023-02-16T03:55:40.962Z,18.15
2023-02-16T03:58:10.097Z,18.38
2023-02-16T04:00:38.008Z,16.70
2023-02-16T04:03:06.727Z,18.08
2023-02-16T04:05:34.315Z,19.60
2023-02-16T04:08:01.855Z,18.08
2023-02-16T04:10:29.469Z,18.58
2023-02-16T04:12:56.928Z,19.83
2023-02-16T04:15:26.705Z,18.90
2023-02-16T04:17:57.979Z,19.45
2023-02-16T04:20:28.789Z,18.05
2023-02-16T04:22:56.742Z,19.13
2023-02-16T04:25:24.953Z,20.02
2023-02-16T04:27:53.424Z,18.65
2023-02-16T04:30:24.096Z,19.00
2023-02-16T04:32:52.410Z,17.80
2023-02-16T04:35:20.110Z,17.98
2023-02-16T04:37:47.872Z,18.70
2023-02-16T04:40:18.111Z,17.65
2023-02-16T04:42:46.887Z,19.08
2023-02-16T04:45:14.937Z,18.95
2023-02-16T04:47:42.872Z,19.67
2023-02-16T04:50:10.870Z,20.33
2023-02-16T04:52:38.659Z,18.38
2023-02-16T04:55:07.944Z,20.40
2023-02-16T04:57:35.536Z,18.25
2023-02-16T05:00:03.728Z,18.83
2023-02-16T05:02:33.089Z,19.77
2023-02-16T05:05:00.683Z,19.13
2023-02-16T05:07:28.382Z,19.65
2023-02-16T05:09:55.997Z,17.90
2023-02-16T05:12:42.309Z,19.55
2023-02-16T05:15:09.958Z,17.45
2023-02-16T05:17:37.386Z,18.08
2023-02-16T05:20:05.559Z,19.13
2023-02-16T05:22:34.585Z,17.88
2023-02-16T05:25:03.392Z,19.80
2023-02-16T05:27:31.778Z,19.70
2023-02-16T05:29:59.867Z,19.63
2023-02-16T05:32:27.648Z,18.02
2023-02-16T05:34:55.258Z,20.17
2023-02-16T05:37:22.830Z,20.40
2023-02-16T05:39:50.331Z,19.40
2023-02-16T05:42:17.831Z,19.13
2023-02-16T05:44:45.292Z,21.55
2023-02-16T05:47:13.230Z,23.45
2023-02-16T05:49:40.731Z,19.83
2023-02-16T05:52:08.386Z,19.92
2023-02-16T05:54:35.956Z,19.35
2023-02-16T05:57:03.536Z,21.65
2023-02-16T05:59:33.199Z,19.33
2023-02-16T06:02:00.922Z,20.95
2023-02-16T06:04:28.729Z,19.75
2023-02-16T06:06:56.255Z,18.65
2023-02-16T06:09:23.837Z,20.67
2023-02-16T06:11:51.262Z,19.50
2023-02-16T06:14:20.684Z,22.08
2023-02-16T06:16:49.780Z,20.50
2023-02-16T06:19:18.445Z,19.70
2023-02-16T06:21:46.534Z,19.42
2023-02-16T06:24:14.744Z,22.13
2023-02-16T06:26:42.418Z,22.15
2023-02-16T06:29:10.431Z,22.05
2023-02-16T06:31:38.032Z,21.23
2023-02-16T06:34:06.089Z,20.58
2023-02-16T06:36:34.837Z,20.45
2023-02-16T06:39:02.428Z,20.42
2023-02-16T06:41:34.334Z,21.33
2023-02-16T06:44:07.333Z,19.77
2023-02-16T06:46:35.387Z,21.00
2023-02-16T06:49:02.865Z,21.15
2023-02-16T06:51:30.587Z,22.08
2023-02-16T06:53:58.126Z,19.02
2023-02-16T06:56:26.190Z,20.63
2023-02-16T06:58:53.738Z,20.92
2023-02-16T07:01:25.719Z,20.45
2023-02-16T07:03:55.125Z,19.92
2023-02-16T07:06:24.446Z,20.75
2023-02-16T07:08:52.601Z,21.95
2023-02-16T07:11:20.803Z,19.63
2023-02-16T07:13:48.264Z,20.10
2023-02-16T07:16:16.137Z,21.58
2023-02-16T07:18:43.797Z,20.98
2023-02-16T07:21:11.301Z,19.80
2023-02-16T07:23:38.798Z,18.83
2023-02-16T07:26:06.368Z,20.42
2023-02-16T07:28:34.087Z,20.83
2023-02-16T07:31:16.197Z,20.45
2023-02-16T07:33:44.261Z,20.70
2023-02-16T07:36:12.756Z,21.40
2023-02-16T07:38:43.618Z,20.40
2023-02-16T07:41:11.975Z,20.88
2023-02-16T07:43:40.759Z,21.42
2023-02-16T07:46:08.481Z,21.85
2023-02-16T07:48:36.051Z,18.77
2023-02-16T07:51:04.489Z,20.85
2023-02-16T07:53:32.365Z,20.88
2023-02-16T07:55:59.950Z,21.20
2023-02-16T07:58:27.722Z,18.67
2023-02-16T08:01:09.552Z,21.42
2023-02-16T08:03:38.350Z,20.15
2023-02-16T08:06:06.481Z,20.45
2023-02-16T08:08:35.163Z,19.90
2023-02-16T08:11:13.826Z,20.42
2023-02-16T08:13:41.503Z,18.38
2023-02-16T08:16:29.076Z,22.25
2023-02-16T08:18:58.712Z,22.40
2023-02-16T08:21:29.953Z,19.88
2023-02-16T08:24:00.296Z,20.50
2023-02-16T08:26:33.937Z,20.52
2023-02-16T08:29:02.001Z,21.13
2023-02-16T08:31:31.664Z,20.58
2023-02-16T08:34:00.951Z,22.27
2023-02-16T08:36:32.915Z,19.90
2023-02-16T08:39:02.321Z,21.58
2023-02-16T08:41:32.101Z,20.85
2023-02-16T08:44:00.939Z,17.45
2023-02-16T08:46:29.713Z,21.92
2023-02-16T08:48:59.732Z,17.70
2023-02-16T08:51:30.476Z,19.48
2023-02-16T08:54:00.304Z,21.77
2023-02-16T08:56:34.156Z,19.80
2023-02-16T08:59:02.165Z,21.80
2023-02-16T09:01:29.964Z,19.45
2023-02-16T09:03:57.522Z,20.48
2023-02-16T09:06:24.956Z,20.83
2023-02-16T09:08:54.164Z,16.15
2023-02-16T09:11:22.811Z,21.48
2023-02-16T09:13:50.774Z,20.02
2023-02-16T09:16:22.649Z,23.40
2023-02-16T09:18:51.530Z,19.33
2023-02-16T09:21:21.778Z,24.02
2023-02-16T09:23:50.859Z,21.75
2023-02-16T09:26:20.382Z,22.98
2023-02-16T09:28:49.345Z,23.90
2023-02-16T09:31:25.601Z,21.45
2023-02-16T09:34:02.662Z,21.50
2023-02-16T09:36:30.821Z,23.20
2023-02-16T09:38:59.870Z,19.60
2023-02-16T09:41:49.132Z,22.55
2023-02-16T09:45:14.173Z,22.73
2023-02-16T09:47:45.036Z,22.15
2023-02-16T09:50:43.880Z,23.88
2023-02-16T09:53:24.404Z,23.65
2023-02-16T09:56:08.643Z,23.70
2023-02-16T09:58:57.530Z,23.43
2023-02-16T10:05:14.492Z,27.58
2023-02-16T10:10:29.629Z,21.95
2023-02-16T10:13:05.821Z,22.15
2023-02-16T10:15:35.003Z,21.85
2023-02-16T10:18:28.280Z,22.60
2023-02-16T10:20:58.792Z,24.98
2023-02-16T10:23:43.524Z,20.95
2023-02-16T10:26:17.459Z,24.48
2023-02-16T10:28:58.202Z,23.00
2023-02-16T10:31:54.808Z,21.80
2023-02-16T10:34:54.830Z,23.35
2023-02-16T10:37:39.276Z,20.77
2023-02-16T10:40:23.302Z,17.98
2023-02-16T10:43:16.039Z,25.07
2023-02-16T10:45:59.966Z,23.75
2023-02-16T10:48:28.220Z,24.45
2023-02-16T10:51:14.005Z,23.20
2023-02-16T10:53:50.933Z,22.13
2023-02-16T10:56:26.098Z,23.65
2023-02-16T10:58:53.986Z,22.10
2023-02-16T11:01:37.533Z,24.58
2023-02-16T11:04:05.852Z,23.83
2023-02-16T11:06:36.708Z,23.98
2023-02-16T11:09:06.578Z,22.13
2023-02-16T11:11:40.960Z,24.30
2023-02-16T11:14:23.767Z,24.17
2023-02-16T11:17:16.685Z,23.85
2023-02-16T11:20:07.446Z,22.63
2023-02-16T11:22:39.192Z,24.35
2023-02-16T11:25:27.097Z,24.33
2023-02-16T11:28:05.381Z,25.33
2023-02-16T11:30:40.027Z,24.33
2023-02-16T11:35:52.283Z,23.15
2023-02-16T11:38:34.823Z,23.27
2023-02-16T11:41:06.455Z,22.00
2023-02-16T11:43:39.062Z,23.75
2023-02-16T11:46:17.722Z,24.02
2023-02-16T11:48:46.225Z,22.98
2023-02-16T11:51:15.754Z,21.90
2023-02-16T11:53:44.868Z,21.95
2023-02-16T11:57:04.846Z,21.70
2023-02-16T11:59:38.772Z,23.55
2023-02-16T12:02:31.412Z,22.92
2023-02-16T12:05:17.420Z,21.70
2023-02-16T12:08:04.404Z,22.67
2023-02-16T12:10:41.052Z,22.42
2023-02-16T12:13:16.533Z,21.45
2023-02-16T12:15:59.038Z,23.05
2023-02-16T12:18:48.288Z,21.75
2023-02-16T12:21:24.622Z,21.33
2023-02-16T12:24:01.702Z,19.83
2023-02-16T12:27:16.914Z,19.83
2023-02-16T12:29:59.970Z,20.60
2023-02-16T12:32:45.823Z,21.83
2023-02-16T12:35:58.525Z,22.63
2023-02-16T12:38:52.001Z,22.20
2023-02-16T12:41:31.970Z,22.13
2023-02-16T12:44:06.222Z,21.92
2023-02-16T12:46:41.200Z,20.25
2023-02-16T12:49:18.096Z,20.00
2023-02-16T12:52:04.514Z,20.50
2023-02-16T12:54:45.877Z,19.88
2023-02-16T12:57:20.629Z,18.33
2023-02-16T12:59:56.665Z,19.02
2023-02-16T13:02:46.270Z,19.08
2023-02-16T13:05:34.858Z,18.48
2023-02-16T13:08:18.394Z,18.05
2023-02-16T13:11:19.440Z,18.00
2023-02-16T13:13:49.326Z,17.35
2023-02-16T13:16:30.876Z,17.70
2023-02-16T13:19:01.236Z,18.45
2023-02-16T13:21:51.925Z,18.25
2023-02-16T13:24:46.836Z,17.55
2023-02-16T13:27:27.622Z,17.27
2023-02-16T13:30:06.756Z,16.75
2023-02-16T13:36:23.010Z,15.30
2023-02-16T13:39:17.550Z,15.45
2023-02-16T13:42:01.615Z,14.77
2023-02-16T13:44:40.404Z,14.10
2023-02-16T13:47:14.085Z,13.85
2023-02-16T13:49:45.114Z,14.02
2023-02-16T13:52:40.169Z,14.10
2023-02-16T13:58:14.807Z,11.10
2023-02-16T14:00:49.719Z,11.77
2023-02-16T14:03:19.157Z,11.98
2023-02-16T14:06:10.333Z,12.43
2023-02-16T14:08:37.853Z,12.55
2023-02-16T14:11:08.831Z,13.35
2023-02-16T14:13:39.670Z,12.60
2023-02-16T14:16:25.462Z,12.32
2023-02-16T14:19:20.036Z,13.43
2023-02-16T14:21:49.649Z,12.93
2023-02-16T14:24:26.962Z,14.00
2023-02-16T14:27:07.228Z,12.07
2023-02-16T14:29:39.499Z,10.57
2023-02-16T14:32:28.478Z,12.82
2023-02-16T14:35:04.793Z,11.88
2023-02-16T14:37:40.664Z,12.13
2023-02-16T14:40:13.639Z,9.38
2023-02-16T14:52:10.439Z,8.85
2023-02-16T14:55:21.127Z,10.60
2023-02-16T14:58:21.442Z,9.82
2023-02-16T15:00:58.188Z,10.45
2023-02-16T15:03:27.154Z,9.13
2023-02-16T15:06:06.295Z,10.55
2023-02-16T15:08:40.262Z,12.20
2023-02-16T15:11:15.898Z,11.80
2023-02-16T15:13:44.736Z,11.32
2023-02-16T15:16:16.584Z,10.65
2023-02-16T15:18:52.282Z,10.23
2023-02-16T15:21:28.510Z,9.90
2023-02-16T15:23:58.695Z,12.73
2023-02-16T15:26:31.826Z,11.00
2023-02-16T15:29:16.662Z,12.75
2023-02-16T15:31:44.871Z,13.07
2023-02-16T15:34:26.544Z,11.73
2023-02-16T15:36:54.410Z,12.43
2023-02-16T15:39:45.154Z,14.45
2023-02-16T15:42:26.558Z,14.50
2023-02-16T15:44:54.423Z,14.27
2023-02-16T15:47:24.778Z,14.50
2023-02-16T15:49:54.219Z,13.68
2023-02-16T15:52:35.140Z,13.45
2023-02-16T15:55:06.157Z,13.80
2023-02-16T15:57:40.070Z,13.93
2023-02-16T16:00:25.134Z,13.55
2023-02-16T16:05:39.895Z,12.40
2023-02-16T16:08:11.704Z,11.88
2023-02-16T16:10:42.113Z,12.65
2023-02-16T16:13:22.651Z,12.30
2023-02-16T16:15:51.571Z,12.98
2023-02-16T16:18:52.287Z,13.77
2023-02-16T16:21:40.434Z,12.15
2023-02-16T16:24:10.885Z,14.43
2023-02-16T16:26:55.593Z,13.40
2023-02-16T16:29:46.852Z,14.30
2023-02-16T16:32:28.942Z,12.63
2023-02-16T16:34:57.463Z,13.10
2023-02-16T16:37:33.381Z,14.40
2023-02-16T16:40:23.495Z,13.27
2023-02-16T16:43:03.048Z,11.60
2023-02-16T16:45:40.693Z,12.50
2023-02-16T16:48:14.320Z,13.63
2023-02-16T16:50:42.771Z,13.30
2023-02-16T16:53:28.746Z,15.15
2023-02-16T16:55:57.477Z,14.20
2023-02-16T16:58:25.318Z,15.60
2023-02-16T17:00:53.540Z,13.13
2023-02-16T17:03:23.863Z,13.77
2023-02-16T17:05:51.599Z,14.25
2023-02-16T17:08:19.488Z,13.85
2023-02-16T17:10:47.639Z,10.50
2023-02-16T17:13:19.075Z,11.65
2023-02-16T17:16:09.165Z,13.52
2023-02-16T17:18:36.979Z,14.27
2023-02-16T17:21:05.410Z,11.57
2023-02-16T17:23:34.131Z,17.42
2023-02-16T17:26:01.770Z,15.60
2023-02-16T17:28:31.171Z,13.35
2023-02-16T17:30:58.626Z,12.98
2023-02-16T17:33:26.224Z,20.85
2023-02-16T17:35:53.932Z,17.75
2023-02-16T17:38:23.255Z,12.50
2023-02-16T17:40:55.351Z,13.68
2023-02-16T17:43:25.945Z,14.30
2023-02-16T17:45:56.604Z,16.02
2023-02-16T17:48:30.368Z,16.67
2023-02-16T17:50:58.794Z,13.95
2023-02-16T17:53:27.794Z,15.38
2023-02-16T17:55:57.816Z,15.80
2023-02-16T17:58:26.051Z,17.98
2023-02-16T18:00:54.627Z,21.42
2023-02-16T18:03:23.077Z,13.70
2023-02-16T18:05:50.651Z,17.30
2023-02-16T18:08:18.263Z,17.60
2023-02-16T18:10:51.158Z,16.85
2023-02-16T18:13:19.050Z,16.80
2023-02-16T18:15:50.252Z,17.27
2023-02-16T18:18:18.662Z,18.92
2023-02-16T18:20:46.803Z,17.50
2023-02-16T18:23:14.710Z,17.73
2023-02-16T18:25:44.109Z,17.35
2023-02-16T18:28:21.227Z,17.23
2023-02-16T18:30:51.712Z,18.92
2023-02-16T18:33:21.305Z,17.15
2023-02-16T18:35:52.355Z,14.63
2023-02-16T18:38:22.051Z,16.30
2023-02-16T18:40:50.030Z,16.98
2023-02-16T18:43:17.730Z,17.23
2023-02-16T18:45:45.246Z,16.90
2023-02-16T18:48:12.891Z,17.63
2023-02-16T18:50:40.966Z,17.67
2023-02-16T18:53:08.564Z,15.68
2023-02-16T18:55:36.207Z,16.80
2023-02-16T18:58:08.075Z,14.93
2023-02-16T19:00:37.187Z,12.65
2023-02-16T19:03:04.967Z,18.17
2023-02-16T19:05:41.885Z,16.08
2023-02-16T19:08:09.560Z,15.35
2023-02-16T19:10:37.283Z,13.77
2023-02-16T19:13:07.047Z,17.33
2023-02-16T19:15:36.320Z,17.20
2023-02-16T19:18:04.090Z,17.00
2023-02-16T19:20:31.615Z,14.15
2023-02-16T19:22:59.630Z,14.75
2023-02-16T19:25:28.867Z,16.23
2023-02-16T19:27:56.458Z,18.65
2023-02-16T19:30:24.356Z,12.98
2023-02-16T19:32:51.851Z,14.07
2023-02-16T19:35:19.587Z,14.63
2023-02-16T19:37:47.623Z,14.63
2023-02-16T19:40:16.509Z,10.98
2023-02-16T19:42:44.473Z,10.77
2023-02-16T19:45:12.049Z,11.38
2023-02-16T19:47:39.685Z,11.48
2023-02-16T19:50:07.569Z,13.02
2023-02-16T19:52:35.198Z,11.75
2023-02-16T19:55:02.682Z,9.32
2023-02-16T19:57:30.129Z,10.30
2023-02-16T19:59:57.666Z,10.98
2023-02-16T20:02:25.341Z,11.38
2023-02-16T20:04:54.648Z,8.98
2023-02-16T20:07:22.238Z,9.82
2023-02-16T20:09:49.791Z,10.07
2023-02-16T20:12:17.395Z,9.57
2023-02-16T20:14:45.420Z,7.93
2023-02-16T20:17:13.058Z,9.57
2023-02-16T20:19:40.889Z,8.95
2023-02-16T20:22:08.578Z,8.30
2023-02-16T20:24:37.371Z,9.00
2023-02-16T20:27:05.153Z,10.05
2023-02-16T20:29:32.714Z,8.75
2023-02-16T20:32:00.790Z,8.93
2023-02-16T20:34:28.575Z,9.45
2023-02-16T20:36:56.500Z,8.13
2023-02-16T20:39:24.054Z,7.88
2023-02-16T20:41:51.507Z,10.32
2023-02-16T20:44:19.426Z,9.70
2023-02-16T20:46:46.867Z,10.45
2023-02-16T20:49:16.391Z,11.35
2023-02-16T20:51:44.725Z,12.98
2023-02-16T20:54:12.580Z,9.65
2023-02-16T20:56:40.147Z,10.02
2023-02-16T20:59:07.796Z,9.70
2023-02-16T21:01:38.446Z,12.43
2023-02-16T21:04:07.625Z,9.13
2023-02-16T21:06:36.411Z,7.88
2023-02-16T21:09:04.902Z,9.75
2023-02-16T21:11:32.874Z,9.48
2023-02-16T21:14:02.212Z,8.75
2023-02-16T21:16:30.885Z,8.10
2023-02-16T21:18:58.392Z,8.15
2023-02-16T21:21:26.082Z,11.07
2023-02-16T21:23:55.058Z,8.75
2023-02-16T21:26:25.281Z,6.78
2023-02-16T21:28:53.263Z,8.70
2023-02-16T21:31:24.448Z,6.88
2023-02-16T21:33:52.576Z,8.35
2023-02-16T21:36:25.755Z,7.85
2023-02-16T21:38:53.994Z,5.50
2023-02-16T21:41:30.105Z,7.13
2023-02-16T21:43:57.833Z,7.13
2023-02-16T21:46:25.996Z,7.47
2023-02-16T21:48:55.651Z,5.75
2023-02-16T21:51:35.449Z,5.43
2023-02-16T21:54:09.237Z,6.38
2023-02-16T21:56:39.649Z,6.85
2023-02-16T21:59:10.073Z,5.57
2023-02-16T22:01:45.766Z,6.25
2023-02-16T22:04:17.404Z,5.53
2023-02-16T22:06:47.388Z,5.43
2023-02-16T22:09:18.295Z,6.20
2023-02-16T22:11:46.914Z,5.53
2023-02-16T22:14:14.860Z,5.65
2023-02-16T22:16:45.668Z,5.32
2023-02-16T22:19:15.865Z,5.35
2023-02-16T22:21:44.880Z,4.72
2023-02-16T22:24:14.136Z,5.20
2023-02-16T22:26:41.675Z,5.63
2023-02-16T22:29:09.912Z,5.10
2023-02-16T22:31:38.248Z,4.20
2023-02-16T22:34:12.020Z,5.05
2023-02-16T22:36:40.298Z,5.53
2023-02-16T22:39:08.303Z,6.45
2023-02-16T22:41:35.703Z,5.88
2023-02-16T22:44:03.187Z,5.63
2023-02-16T22:46:30.800Z,5.10
2023-02-16T22:48:59.974Z,6.50
2023-02-16T22:51:29.372Z,9.15
2023-02-16T22:54:01.618Z,6.95
2023-02-16T22:56:29.957Z,6.68
2023-02-16T22:58:59.471Z,7.53
2023-02-16T23:01:29.246Z,7.22
2023-02-16T23:03:58.518Z,6.60
2023-02-16T23:06:27.259Z,7.32
2023-02-16T23:08:57.892Z,7.05
2023-02-16T23:11:27.022Z,6.57
2023-02-16T23:13:54.776Z,8.00
2023-02-16T23:16:24.517Z,8.02
2023-02-16T23:18:52.631Z,7.38
2023-02-16T23:21:23.478Z,7.05
2023-02-16T23:23:52.589Z,7.32
2023-02-16T23:26:22.440Z,7.28
2023-02-16T23:28:51.909Z,8.43
2023-02-16T23:31:19.752Z,7.07
2023-02-16T23:33:47.448Z,7.53
2023-02-16T23:36:15.062Z,6.22
2023-02-16T23:38:42.631Z,7.75
2023-02-16T23:41:13.080Z,6.22
2023-02-16T23:43:40.988Z,8.45
2023-02-16T23:46:10.345Z,7.43
2023-02-16T23:48:38.552Z,8.02
2023-02-16T23:51:06.587Z,8.23
2023-02-16T23:53:34.273Z,6.80
2023-02-16T23:56:07.668Z,8.90
2023-02-16T23:58:42.989Z,8.63
